NHT weather

RAF Northolt
London, England, United Kingdom

Public forecast

Using degrees Celsius for public forecast. Weather courtesy of forecast.io.

METAR (pilot weather report)

Retrieved 2019/03/26 04:50 UTC (53 minutes ago):

EGWU 260450Z AUTO 26002KT 9999 // NCD M00/M01 Q1034

TAF (pilot weather forecast)

Forecast is more than 12 hours old.

Retrieved 2019/03/25 00:16 UTC (1 day ago):

TAF EGWU 252311Z 2600/2618 CNL